Time;durP1;ratioP1;P1;durP2;ratioP2;P2;SDS_P1;SDS_P2;PMS_P1;PMS_P2;Temp;Humidity;BMP_temperature;BMP_pressure;BME280_temperature;BME280_humidity;BME280_pressure;Samples;Min_cycle;Max_cycle;Signal;HPM_P1;HPM_P2
2023/06/13 00:03:34;;;;;;;11.38;5.47;;;;;;;;;;10405182;28;20036;-85
2023/06/13 00:08:35;;;;;;;10.32;5.13;;;;;;;;;;10405681;28;20065;-85
2023/06/13 00:13:45;;;;;;;10.48;4.85;;;;;;;;;;10400124;28;20025;-85
2023/06/13 00:18:46;;;;;;;8.47;4.97;;;;;;;;;;10402754;28;20627;-86
2023/06/13 00:23:47;;;;;;;10.47;4.80;;;;;;;;;;10405642;28;20477;-85
2023/06/13 00:28:48;;;;;;;9.43;5.50;;;;;;;;;;10404012;28;20493;-85
2023/06/13 00:33:50;;;;;;;9.10;4.60;;;;;;;;;;10386959;28;20116;-86
2023/06/13 00:38:52;;;;;;;9.93;5.10;;;;;;;;;;10404694;28;20057;-86
2023/06/13 00:43:53;;;;;;;9.03;5.03;;;;;;;;;;10386576;28;20017;-86
2023/06/13 00:48:54;;;;;;;10.77;5.13;;;;;;;;;;10385672;28;20388;-85
2023/06/13 00:53:57;;;;;;;8.80;5.00;;;;;;;;;;10404487;28;20028;-85
2023/06/13 00:58:59;;;;;;;9.63;5.10;;;;;;;;;;10404119;28;20033;-84
2023/06/13 01:04:02;;;;;;;8.43;5.03;;;;;;;;;;10403415;28;20118;-86
2023/06/13 01:09:04;;;;;;;10.53;4.83;;;;;;;;;;10386031;28;20100;-85
2023/06/13 01:14:09;;;;;;;8.50;5.07;;;;;;;;;;10403646;28;20107;-85
2023/06/13 01:19:18;;;;;;;7.82;4.88;;;;;;;;;;10403034;28;20041;-85
2023/06/13 01:24:27;;;;;;;8.10;5.33;;;;;;;;;;10403310;28;20077;-85
2023/06/13 01:29:30;;;;;;;10.07;5.03;;;;;;;;;;10385288;28;20030;-85
2023/06/13 01:34:31;;;;;;;7.47;5.37;;;;;;;;;;10385628;28;20022;-85
2023/06/13 01:39:35;;;;;;;8.43;5.03;;;;;;;;;;10387127;28;20029;-86
2023/06/13 01:44:36;;;;;;;8.90;5.03;;;;;;;;;;10411556;28;20035;-86
2023/06/13 01:49:38;;;;;;;8.83;5.57;;;;;;;;;;10411158;28;20041;-85
2023/06/13 01:54:43;;;;;;;8.77;5.60;;;;;;;;;;10392402;28;20029;-84
2023/06/13 01:59:44;;;;;;;9.98;6.55;;;;;;;;;;10410576;28;20029;-85
2023/06/13 02:04:45;;;;;;;10.10;6.53;;;;;;;;;;10409532;28;20080;-86
2023/06/13 02:09:46;;;;;;;13.60;7.00;;;;;;;;;;10410057;28;20029;-86
2023/06/13 02:14:48;;;;;;;11.33;7.23;;;;;;;;;;10409736;28;20764;-85
2023/06/13 02:19:49;;;;;;;12.37;7.20;;;;;;;;;;10392080;28;20384;-85
2023/06/13 02:24:50;;;;;;;12.53;7.60;;;;;;;;;;10410016;28;20037;-85
2023/06/13 02:29:51;;;;;;;14.40;8.50;;;;;;;;;;10404088;28;20022;-85
2023/06/13 02:34:52;;;;;;;15.23;8.57;;;;;;;;;;10407959;28;20018;-87
2023/06/13 02:39:53;;;;;;;15.30;8.87;;;;;;;;;;10391534;28;20025;-86
2023/06/13 02:44:54;;;;;;;18.40;9.90;;;;;;;;;;10408770;28;20037;-85
2023/06/13 02:49:55;;;;;;;17.90;11.57;;;;;;;;;;10408234;28;20387;-85
2023/06/13 02:54:56;;;;;;;20.90;13.13;;;;;;;;;;10396614;28;20030;-85
2023/06/13 03:00:10;;;;;;;24.93;13.67;;;;;;;;;;10406290;28;20078;-87
2023/06/13 03:05:15;;;;;;;22.13;13.60;;;;;;;;;;10378194;28;20041;-85
2023/06/13 03:10:16;;;;;;;20.45;12.48;;;;;;;;;;10407532;28;20099;-86
2023/06/13 03:15:18;;;;;;;16.80;11.70;;;;;;;;;;10386066;28;20076;-86
2023/06/13 03:20:20;;;;;;;21.23;12.63;;;;;;;;;;10388717;28;20591;-86
2023/06/13 03:25:21;;;;;;;21.50;12.27;;;;;;;;;;10407552;28;20463;-85
2023/06/13 03:30:22;;;;;;;21.20;13.17;;;;;;;;;;10406634;28;20025;-87
2023/06/13 03:35:23;;;;;;;22.53;12.50;;;;;;;;;;10389384;28;20018;-86
2023/06/13 03:40:24;;;;;;;19.80;12.50;;;;;;;;;;10387834;28;20144;-85
2023/06/13 03:45:27;;;;;;;18.00;11.00;;;;;;;;;;10407387;28;20049;-84
2023/06/13 03:50:28;;;;;;;20.03;11.63;;;;;;;;;;10388811;28;20519;-86
2023/06/13 03:55:32;;;;;;;18.43;11.33;;;;;;;;;;10406007;28;20025;-87
2023/06/13 04:00:33;;;;;;;18.70;11.20;;;;;;;;;;10405522;28;20025;-86
2023/06/13 04:05:34;;;;;;;16.47;9.27;;;;;;;;;;10404565;28;20041;-85
2023/06/13 04:16:16;;;;;;;19.73;10.90;;;;;;;;;;10404691;28;20037;-86
2023/06/13 04:21:17;;;;;;;17.73;10.53;;;;;;;;;;10405102;28;20025;-83
2023/06/13 04:26:18;;;;;;;15.73;9.50;;;;;;;;;;10402800;28;20451;-86
2023/06/13 04:31:20;;;;;;;18.27;10.40;;;;;;;;;;10384112;28;20033;-87
2023/06/13 04:36:23;;;;;;;18.83;10.40;;;;;;;;;;10405112;28;20026;-86
2023/06/13 04:41:24;;;;;;;19.77;11.00;;;;;;;;;;10386988;28;20432;-86
2023/06/13 04:46:26;;;;;;;19.80;11.02;;;;;;;;;;10387182;28;20033;-86
2023/06/13 04:51:27;;;;;;;14.20;8.80;;;;;;;;;;10403601;28;20068;-85
2023/06/13 04:56:28;;;;;;;16.05;9.73;;;;;;;;;;10404065;28;20018;-86
2023/06/13 05:01:32;;;;;;;15.25;9.13;;;;;;;;;;10404157;28;20040;-88
2023/06/13 05:06:37;;;;;;;16.92;10.00;;;;;;;;;;10386182;28;20052;-86
2023/06/13 05:11:38;;;;;;;15.13;9.07;;;;;;;;;;10386215;28;20119;-85
2023/06/13 05:16:40;;;;;;;14.32;8.57;;;;;;;;;;10408934;28;20063;-86
2023/06/13 05:21:41;;;;;;;14.60;9.05;;;;;;;;;;10394314;28;20037;-87
2023/06/13 05:26:42;;;;;;;14.52;9.02;;;;;;;;;;10394093;28;20049;-88
2023/06/13 05:31:43;;;;;;;17.10;8.75;;;;;;;;;;10393783;28;20387;-86
2023/06/13 05:36:45;;;;;;;19.98;10.45;;;;;;;;;;10393614;28;20033;-86
2023/06/13 05:41:46;;;;;;;22.58;10.48;;;;;;;;;;10411413;28;20018;-85
2023/06/13 05:46:47;;;;;;;17.45;8.73;;;;;;;;;;10412078;28;20041;-85
2023/06/13 05:51:48;;;;;;;15.02;7.68;;;;;;;;;;10392829;28;20439;-85
2023/06/13 05:56:49;;;;;;;14.15;7.28;;;;;;;;;;10393050;28;20070;-88
2023/06/13 06:01:50;;;;;;;18.42;8.15;;;;;;;;;;10379234;28;20040;-86
2023/06/13 06:06:52;;;;;;;16.20;8.40;;;;;;;;;;10410786;28;20637;-87
2023/06/13 06:11:53;;;;;;;17.75;8.35;;;;;;;;;;10411754;28;20022;-88
2023/06/13 06:16:55;;;;;;;18.95;8.60;;;;;;;;;;10421845;28;20033;-86
2023/06/13 06:21:56;;;;;;;9.32;4.78;;;;;;;;;;10410075;28;20104;-86
2023/06/13 06:26:57;;;;;;;10.63;4.30;;;;;;;;;;10410016;28;20036;-86
2023/06/13 06:31:58;;;;;;;6.60;4.22;;;;;;;;;;10409820;28;20017;-86
2023/06/13 06:37:00;;;;;;;6.55;4.13;;;;;;;;;;10404112;28;20097;-87
2023/06/13 06:42:01;;;;;;;5.28;3.10;;;;;;;;;;10385672;28;20091;-86
2023/06/13 06:47:02;;;;;;;3.63;2.80;;;;;;;;;;10391471;28;20045;-90
2023/06/13 06:52:03;;;;;;;4.88;2.80;;;;;;;;;;10367043;28;20100;-87
2023/06/13 06:57:04;;;;;;;4.75;1.92;;;;;;;;;;10364137;28;20033;-85
2023/06/13 07:02:05;;;;;;;3.53;2.60;;;;;;;;;;10365613;28;20117;-86
2023/06/13 07:07:06;;;;;;;3.45;2.60;;;;;;;;;;10348429;28;20381;-87
2023/06/13 07:12:08;;;;;;;2.13;1.83;;;;;;;;;;10364045;28;20100;-86
2023/06/13 07:17:09;;;;;;;3.05;1.88;;;;;;;;;;10359634;28;20113;-88
2023/06/13 07:22:10;;;;;;;3.28;2.03;;;;;;;;;;10362467;28;20034;-85
2023/06/13 07:27:11;;;;;;;8.75;2.33;;;;;;;;;;10362992;28;20100;-86
2023/06/13 07:32:12;;;;;;;3.65;2.15;;;;;;;;;;10358302;28;20033;-85
2023/06/13 07:37:13;;;;;;;6.25;2.72;;;;;;;;;;10350282;28;20022;-86
2023/06/13 07:42:14;;;;;;;4.82;2.70;;;;;;;;;;10365697;28;20037;-87
2023/06/13 07:47:15;;;;;;;4.47;2.88;;;;;;;;;;10360522;28;20405;-87
2023/06/13 07:52:17;;;;;;;6.45;2.90;;;;;;;;;;10392533;28;20045;-86
2023/06/13 07:57:18;;;;;;;4.68;2.83;;;;;;;;;;10403398;28;20061;-86
2023/06/13 08:02:20;;;;;;;2.90;1.90;;;;;;;;;;10388185;28;20029;-86
2023/06/13 08:07:29;;;;;;;5.32;2.00;;;;;;;;;;10380935;28;20489;-86
2023/06/13 08:12:30;;;;;;;2.65;2.20;;;;;;;;;;10385221;28;20530;-86
2023/06/13 08:17:31;;;;;;;4.28;2.35;;;;;;;;;;10401636;28;20025;-88
2023/06/13 08:22:32;;;;;;;3.85;2.45;;;;;;;;;;10376699;28;20460;-88
2023/06/13 08:27:35;;;;;;;6.78;2.70;;;;;;;;;;10401799;28;20056;-87
2023/06/13 08:32:41;;;;;;;3.80;2.25;;;;;;;;;;10393572;28;20032;-87
2023/06/13 08:37:42;;;;;;;2.72;1.67;;;;;;;;;;10383688;28;20021;-87
2023/06/13 08:42:44;;;;;;;2.40;1.85;;;;;;;;;;10377304;28;20489;-89
2023/06/13 08:47:50;;;;;;;3.45;2.00;;;;;;;;;;10385009;28;20120;-88
2023/06/13 08:52:51;;;;;;;5.13;1.92;;;;;;;;;;10377022;28;20499;-87
2023/06/13 08:57:54;;;;;;;4.85;2.20;;;;;;;;;;10384213;28;20152;-86
2023/06/13 09:02:56;;;;;;;4.00;2.00;;;;;;;;;;10399805;28;20037;-89
2023/06/13 09:07:58;;;;;;;4.95;2.15;;;;;;;;;;10388968;28;20184;-86
2023/06/13 09:13:00;;;;;;;3.58;2.03;;;;;;;;;;10382156;28;20048;-86
2023/06/13 09:18:01;;;;;;;5.13;2.13;;;;;;;;;;10385821;28;20029;-87
2023/06/13 09:23:03;;;;;;;12.02;2.58;;;;;;;;;;10403251;28;20040;-88
2023/06/13 09:28:22;;;;;;;2.67;2.15;;;;;;;;;;10382278;28;20133;-88
2023/06/13 09:33:24;;;;;;;6.97;2.40;;;;;;;;;;10385363;28;20029;-87
2023/06/13 09:38:26;;;;;;;3.25;1.90;;;;;;;;;;10385196;28;20034;-87
2023/06/13 09:43:27;;;;;;;3.47;1.92;;;;;;;;;;10394692;28;20385;-87
2023/06/13 09:48:28;;;;;;;5.38;2.10;;;;;;;;;;10400259;28;20536;-87
2023/06/13 09:53:30;;;;;;;4.47;2.15;;;;;;;;;;10358831;28;20516;-86
2023/06/13 09:58:31;;;;;;;8.02;2.30;;;;;;;;;;10361772;28;20022;-88
2023/06/13 10:03:32;;;;;;;2.75;1.90;;;;;;;;;;10355551;28;20075;-87
2023/06/13 10:08:34;;;;;;;3.22;2.20;;;;;;;;;;10365744;28;20057;-88
2023/06/13 10:13:52;;;;;;;2.78;2.15;;;;;;;;;;10374786;28;20022;-86
2023/06/13 10:18:53;;;;;;;4.03;2.30;;;;;;;;;;10366054;28;20496;-87
2023/06/13 10:23:55;;;;;;;4.32;2.08;;;;;;;;;;10368740;28;20033;-87
2023/06/13 10:28:59;;;;;;;3.05;2.20;;;;;;;;;;10365352;28;20488;-86
2023/06/13 10:34:20;;;;;;;2.58;2.25;;;;;;;;;;10357690;28;20044;-86
2023/06/13 10:39:34;;;;;;;3.88;2.30;;;;;;;;;;10357146;28;20032;-87
2023/06/13 10:44:35;;;;;;;2.67;2.00;;;;;;;;;;10345632;28;20042;-85
2023/06/13 10:49:38;;;;;;;3.30;2.40;;;;;;;;;;10367764;28;20094;-89
2023/06/13 10:54:40;;;;;;;3.70;2.58;;;;;;;;;;10406165;28;20022;-86
2023/06/13 10:59:41;;;;;;;4.45;2.45;;;;;;;;;;10382131;28;20025;-88
2023/06/13 11:04:49;;;;;;;4.07;2.45;;;;;;;;;;10368900;28;20033;-87
2023/06/13 11:10:04;;;;;;;3.33;2.28;;;;;;;;;;10390094;28;20029;-87
2023/06/13 11:15:07;;;;;;;3.53;2.60;;;;;;;;;;10349020;28;20082;-88
2023/06/13 11:20:18;;;;;;;3.22;2.17;;;;;;;;;;10366956;28;20440;-88
2023/06/13 11:25:20;;;;;;;4.13;1.95;;;;;;;;;;10365308;28;20041;-87
2023/06/13 11:30:21;;;;;;;3.22;2.15;;;;;;;;;;10374499;28;20033;-87
2023/06/13 11:35:24;;;;;;;4.03;2.00;;;;;;;;;;10386966;28;20018;-88
2023/06/13 11:40:33;;;;;;;3.50;2.25;;;;;;;;;;10373054;28;20026;-85
2023/06/13 11:45:35;;;;;;;6.10;2.60;;;;;;;;;;10385156;28;20124;-86
2023/06/13 11:50:36;;;;;;;4.15;2.28;;;;;;;;;;10399544;28;20436;-89
2023/06/13 11:55:37;;;;;;;3.13;1.92;;;;;;;;;;10378887;28;20034;-87
2023/06/13 12:00:54;;;;;;;2.00;1.80;;;;;;;;;;10399963;28;20083;-88
2023/06/13 12:05:57;;;;;;;4.00;2.55;;;;;;;;;;10368952;28;20083;-86
2023/06/13 12:10:58;;;;;;;3.08;2.10;;;;;;;;;;10395169;28;20071;-87
2023/06/13 12:16:00;;;;;;;6.30;2.10;;;;;;;;;;10379855;28;20025;-85
2023/06/13 12:21:01;;;;;;;3.88;2.50;;;;;;;;;;10390258;28;20150;-88
2023/06/13 12:26:03;;;;;;;2.95;2.08;;;;;;;;;;10375959;28;20045;-88
2023/06/13 12:31:07;;;;;;;2.33;1.95;;;;;;;;;;10382273;28;20487;-87
2023/06/13 12:36:09;;;;;;;2.05;1.85;;;;;;;;;;10376985;28;20021;-89
2023/06/13 12:41:14;;;;;;;3.03;2.15;;;;;;;;;;10383478;28;20026;-89
2023/06/13 12:46:15;;;;;;;2.15;1.92;;;;;;;;;;10381063;28;20041;-89
2023/06/13 12:51:27;;;;;;;4.28;2.50;;;;;;;;;;10382206;28;20103;-90
2023/06/13 12:56:28;;;;;;;2.65;1.63;;;;;;;;;;10382725;28;20593;-88
2023/06/13 13:01:29;;;;;;;1.98;1.70;;;;;;;;;;10402221;28;20034;-88
2023/06/13 13:06:31;;;;;;;3.63;2.20;;;;;;;;;;10385259;28;20052;-87
2023/06/13 13:11:32;;;;;;;4.25;1.90;;;;;;;;;;10385775;28;20041;-87
2023/06/13 13:16:33;;;;;;;3.22;1.98;;;;;;;;;;10381416;28;20239;-86
2023/06/13 13:21:34;;;;;;;4.07;2.10;;;;;;;;;;10401972;28;20365;-88
2023/06/13 13:26:35;;;;;;;4.32;1.60;;;;;;;;;;10399765;28;20495;-89
2023/06/13 13:31:36;;;;;;;2.72;1.30;;;;;;;;;;10398654;28;20029;-87
2023/06/13 13:36:38;;;;;;;2.80;1.92;;;;;;;;;;10400716;28;20431;-86
2023/06/13 13:41:39;;;;;;;5.20;2.65;;;;;;;;;;10408757;28;20033;-89
2023/06/13 13:46:40;;;;;;;2.88;1.83;;;;;;;;;;10409074;28;20041;-88
2023/06/13 13:51:43;;;;;;;3.05;1.60;;;;;;;;;;10386740;28;20144;-89
2023/06/13 13:56:44;;;;;;;4.88;1.75;;;;;;;;;;10395268;28;20025;-88
2023/06/13 14:01:46;;;;;;;3.35;1.90;;;;;;;;;;10390428;28;20040;-90
2023/06/13 14:06:47;;;;;;;2.88;1.83;;;;;;;;;;10396986;28;20029;-86
2023/06/13 14:11:48;;;;;;;3.53;1.35;;;;;;;;;;10387473;28;20124;-87
2023/06/13 14:16:49;;;;;;;3.38;1.70;;;;;;;;;;10406422;28;20369;-89
2023/06/13 14:21:50;;;;;;;2.50;1.73;;;;;;;;;;10388803;28;20033;-87
2023/06/13 14:26:51;;;;;;;1.70;1.55;;;;;;;;;;10386524;28;20041;-87
2023/06/13 14:31:52;;;;;;;4.53;2.13;;;;;;;;;;10377995;28;20018;-87
2023/06/13 14:36:54;;;;;;;3.70;1.92;;;;;;;;;;10388962;28;20141;-85
2023/06/13 14:41:56;;;;;;;2.53;1.52;;;;;;;;;;10388837;28;20046;-87
2023/06/13 14:46:58;;;;;;;7.47;1.85;;;;;;;;;;10397213;28;20099;-87
2023/06/13 14:51:59;;;;;;;2.40;1.95;;;;;;;;;;10364631;28;20642;-88
2023/06/13 14:57:00;;;;;;;1.77;1.48;;;;;;;;;;10365784;28;20033;-87
2023/06/13 15:02:01;;;;;;;5.50;2.20;;;;;;;;;;10356917;28;20137;-87
2023/06/13 15:07:02;;;;;;;2.38;1.73;;;;;;;;;;10361492;28;20038;-86
2023/06/13 15:12:04;;;;;;;2.30;1.60;;;;;;;;;;10364764;28;20049;-86
2023/06/13 15:17:05;;;;;;;2.45;1.38;;;;;;;;;;10362529;28;20095;-88
2023/06/13 15:22:06;;;;;;;3.10;1.70;;;;;;;;;;10365160;28;20025;-87
2023/06/13 15:27:07;;;;;;;2.53;1.55;;;;;;;;;;10361689;28;20044;-88
2023/06/13 15:32:08;;;;;;;5.22;4.05;;;;;;;;;;10361406;28;20029;-84
2023/06/13 15:37:09;;;;;;;1.80;1.25;;;;;;;;;;10365037;28;20109;-84
2023/06/13 15:42:10;;;;;;;5.60;1.48;;;;;;;;;;10356823;28;20118;-84
2023/06/13 15:47:11;;;;;;;3.13;2.10;;;;;;;;;;10360490;28;20377;-84
2023/06/13 15:52:12;;;;;;;1.73;1.55;;;;;;;;;;10353695;28;20053;-85
2023/06/13 15:57:13;;;;;;;2.83;2.00;;;;;;;;;;10336600;28;20026;-84
2023/06/13 16:02:14;;;;;;;2.38;1.50;;;;;;;;;;10352037;28;20367;-85
2023/06/13 16:07:16;;;;;;;2.33;1.45;;;;;;;;;;10343298;28;20041;-85
2023/06/13 16:12:18;;;;;;;2.67;1.80;;;;;;;;;;10363986;28;20084;-83
2023/06/13 16:17:19;;;;;;;1.75;1.20;;;;;;;;;;10362478;28;20056;-85
2023/06/13 16:22:20;;;;;;;2.55;1.30;;;;;;;;;;10362754;28;20488;-86
2023/06/13 16:27:21;;;;;;;1.55;1.30;;;;;;;;;;10346900;28;20042;-85
2023/06/13 16:32:22;;;;;;;1.77;1.10;;;;;;;;;;10352837;28;20410;-85
2023/06/13 16:37:26;;;;;;;1.83;1.33;;;;;;;;;;10358840;28;20036;-85
2023/06/13 16:42:27;;;;;;;1.77;1.30;;;;;;;;;;10351936;28;20759;-85
2023/06/13 16:47:33;;;;;;;1.83;1.60;;;;;;;;;;10363066;28;20129;-85
2023/06/13 16:52:34;;;;;;;4.47;1.73;;;;;;;;;;10362283;28;20097;-86
2023/06/13 16:57:35;;;;;;;2.13;1.25;;;;;;;;;;10356809;28;20033;-86
2023/06/13 17:02:36;;;;;;;2.88;1.40;;;;;;;;;;10348878;28;20034;-85
2023/06/13 17:07:41;;;;;;;2.35;1.70;;;;;;;;;;10343737;28;20737;-84
2023/06/13 17:12:42;;;;;;;2.75;1.52;;;;;;;;;;10359226;28;20720;-84
2023/06/13 17:17:43;;;;;;;4.00;1.67;;;;;;;;;;10348404;28;20026;-84
2023/06/13 17:22:44;;;;;;;2.20;1.38;;;;;;;;;;10354309;28;20022;-84
2023/06/13 17:27:45;;;;;;;1.95;1.35;;;;;;;;;;10342897;28;20069;-86
2023/06/13 17:32:48;;;;;;;1.58;1.10;;;;;;;;;;10357202;28;20014;-86
2023/06/13 17:37:49;;;;;;;1.75;1.10;;;;;;;;;;10356426;28;20025;-87
2023/06/13 17:42:51;;;;;;;3.50;1.27;;;;;;;;;;10353758;28;20482;-86
2023/06/13 17:47:52;;;;;;;2.13;1.40;;;;;;;;;;10349831;28;20026;-83
2023/06/13 17:52:53;;;;;;;1.63;1.30;;;;;;;;;;10351134;28;20140;-83
2023/06/13 17:57:54;;;;;;;2.63;1.40;;;;;;;;;;10343652;28;20033;-84
2023/06/13 18:02:56;;;;;;;2.40;1.80;;;;;;;;;;10344790;28;20036;-84
2023/06/13 18:07:57;;;;;;;4.03;2.70;;;;;;;;;;10334873;28;20085;-84
2023/06/13 18:12:58;;;;;;;4.07;1.90;;;;;;;;;;10334089;28;20024;-83
2023/06/13 18:17:59;;;;;;;5.18;2.97;;;;;;;;;;10345511;28;20042;-83
2023/06/13 18:23:00;;;;;;;11.07;4.95;;;;;;;;;;10352692;28;20023;-83
2023/06/13 18:28:01;;;;;;;9.70;5.15;;;;;;;;;;10340958;28;20069;-83
2023/06/13 18:33:02;;;;;;;6.38;4.18;;;;;;;;;;10349464;28;20041;-83
2023/06/13 18:38:05;;;;;;;7.43;4.03;;;;;;;;;;10358468;28;20075;-85
2023/06/13 18:43:06;;;;;;;5.97;3.25;;;;;;;;;;10350265;28;20084;-83
2023/06/13 18:48:07;;;;;;;8.85;3.30;;;;;;;;;;10366791;28;20054;-83
2023/06/13 18:53:09;;;;;;;4.82;2.85;;;;;;;;;;10388162;28;20132;-84
2023/06/13 18:58:10;;;;;;;4.07;2.53;;;;;;;;;;10403744;28;20648;-84
2023/06/13 19:03:12;;;;;;;3.40;2.15;;;;;;;;;;10365769;28;20672;-83
2023/06/13 19:08:13;;;;;;;3.90;2.35;;;;;;;;;;10382490;28;20038;-86
2023/06/13 19:13:14;;;;;;;3.50;2.28;;;;;;;;;;10389602;28;20391;-87
2023/06/13 19:18:18;;;;;;;4.18;2.42;;;;;;;;;;10390005;28;20065;-84
2023/06/13 19:23:19;;;;;;;8.32;3.30;;;;;;;;;;10407430;28;20041;-84
2023/06/13 19:28:20;;;;;;;4.00;2.70;;;;;;;;;;10407499;28;20837;-83
2023/06/13 19:33:22;;;;;;;5.95;2.80;;;;;;;;;;10391953;28;20037;-83
2023/06/13 19:38:25;;;;;;;4.45;2.92;;;;;;;;;;10380697;28;20022;-83
2023/06/13 19:43:26;;;;;;;4.97;2.92;;;;;;;;;;10406719;28;20064;-84
2023/06/13 19:48:28;;;;;;;4.75;3.03;;;;;;;;;;10404729;28;20095;-84
2023/06/13 19:53:29;;;;;;;6.15;3.50;;;;;;;;;;10363268;28;20799;-84
2023/06/13 19:58:32;;;;;;;3.58;2.70;;;;;;;;;;10336289;28;20489;-83
2023/06/13 20:03:33;;;;;;;6.05;3.70;;;;;;;;;;10363487;28;20036;-83
2023/06/13 20:08:34;;;;;;;7.57;4.40;;;;;;;;;;10348507;28;20033;-87
2023/06/13 20:13:36;;;;;;;6.45;3.55;;;;;;;;;;10339104;28;20022;-87
2023/06/13 20:18:37;;;;;;;5.25;3.42;;;;;;;;;;10339046;28;20017;-88
2023/06/13 20:23:38;;;;;;;7.55;3.45;;;;;;;;;;10355263;28;20539;-85
2023/06/13 20:28:39;;;;;;;5.75;3.70;;;;;;;;;;10351696;28;20038;-87
2023/06/13 20:33:40;;;;;;;4.80;3.75;;;;;;;;;;10347657;28;20038;-87
2023/06/13 20:38:41;;;;;;;6.60;4.10;;;;;;;;;;10355123;28;20051;-86
2023/06/13 20:43:42;;;;;;;5.70;4.13;;;;;;;;;;10357287;28;20028;-87
2023/06/13 20:48:45;;;;;;;7.75;4.32;;;;;;;;;;10361492;28;20100;-86
2023/06/13 20:53:46;;;;;;;10.43;5.27;;;;;;;;;;10398366;28;20065;-86
2023/06/13 20:58:49;;;;;;;7.00;4.60;;;;;;;;;;10391477;28;20101;-85
2023/06/13 21:03:50;;;;;;;8.60;5.00;;;;;;;;;;10397087;28;20404;-86
2023/06/13 21:08:51;;;;;;;9.27;5.00;;;;;;;;;;10373630;28;20090;-87
2023/06/13 21:13:52;;;;;;;12.02;6.20;;;;;;;;;;10352537;28;20021;-86
2023/06/13 21:18:53;;;;;;;10.00;6.47;;;;;;;;;;10362675;28;20099;-87
2023/06/13 21:23:54;;;;;;;9.85;6.68;;;;;;;;;;10370362;28;20037;-87
2023/06/13 21:28:58;;;;;;;9.75;5.85;;;;;;;;;;10369881;28;20039;-89
2023/06/13 21:33:59;;;;;;;11.20;7.05;;;;;;;;;;10366939;28;20030;-87
2023/06/13 21:39:00;;;;;;;11.77;6.43;;;;;;;;;;10382883;28;20044;-88
2023/06/13 21:44:01;;;;;;;11.60;6.75;;;;;;;;;;10360409;28;20040;-85
2023/06/13 21:49:02;;;;;;;13.70;6.95;;;;;;;;;;10369857;28;20038;-87
2023/06/13 21:54:04;;;;;;;12.43;6.93;;;;;;;;;;10368507;28;20095;-87
2023/06/13 21:59:05;;;;;;;10.70;6.47;;;;;;;;;;10368812;28;20056;-87
2023/06/13 22:04:06;;;;;;;13.48;7.43;;;;;;;;;;10384705;28;20040;-87
2023/06/13 22:09:14;;;;;;;13.13;7.43;;;;;;;;;;10409709;28;20071;-87
2023/06/13 22:14:15;;;;;;;14.73;8.00;;;;;;;;;;10411517;28;20080;-87
2023/06/13 22:19:16;;;;;;;15.82;8.18;;;;;;;;;;10410452;28;20048;-86
2023/06/13 22:24:18;;;;;;;17.47;8.50;;;;;;;;;;10402868;28;20474;-88
2023/06/13 22:29:19;;;;;;;14.97;9.10;;;;;;;;;;10402304;28;20069;-88
2023/06/13 22:34:20;;;;;;;13.40;7.03;;;;;;;;;;10392274;28;20029;-88
2023/06/13 22:39:21;;;;;;;11.50;7.17;;;;;;;;;;10408536;28;20036;-87
2023/06/13 22:44:22;;;;;;;14.10;7.83;;;;;;;;;;10408797;28;20036;-87
2023/06/13 22:49:24;;;;;;;13.13;7.28;;;;;;;;;;10407912;28;20278;-88
2023/06/13 22:54:35;;;;;;;15.17;7.43;;;;;;;;;;10389830;28;20045;-89
2023/06/13 23:00:10;;;;;;;13.93;8.33;;;;;;;;;;10403431;28;20030;-88
2023/06/13 23:05:11;;;;;;;13.40;7.90;;;;;;;;;;10381585;28;20045;-88
2023/06/13 23:10:12;;;;;;;16.57;8.30;;;;;;;;;;10385056;28;20025;-87
2023/06/13 23:15:22;;;;;;;15.17;7.90;;;;;;;;;;10387107;28;20037;-87
2023/06/13 23:20:23;;;;;;;11.97;6.80;;;;;;;;;;10397920;28;20022;-88
2023/06/13 23:25:27;;;;;;;13.70;7.97;;;;;;;;;;10407406;28;20030;-89
2023/06/13 23:30:31;;;;;;;14.07;7.97;;;;;;;;;;10407183;28;20092;-88
2023/06/13 23:35:32;;;;;;;17.30;8.30;;;;;;;;;;10389075;28;20029;-87
2023/06/13 23:40:33;;;;;;;13.80;8.70;;;;;;;;;;10389240;28;20017;-89
2023/06/13 23:45:35;;;;;;;20.57;10.03;;;;;;;;;;10389239;28;20321;-88
2023/06/13 23:50:37;;;;;;;17.00;9.13;;;;;;;;;;10405976;28;20064;-88
2023/06/13 23:55:41;;;;;;;15.87;7.37;;;;;;;;;;10406569;28;20060;-88
